aviador You're here:

KM25 Decoded Metar

in
Report Time2017-04-29 11:35:00
UTC Time2017-04-29 11:16:27
Flight Rules vfr VFR
Wind160° at 08 Gusting to 15 kt
W.Rank160° ranks 8
Current wind is above 160° avg. (5.8)
Visibility9999 m
Phenomena:N/A
Clouds:Overcast 045 Hf
Expected CloudBase > 1,200 ft AGL from Temp-Dew spread
Ceiling4,500 ft
Temp23°C
Dew Point20°C (83% RH)
QNH1012 hPa
Raw Report
KM25 291135Z AUTO 16008G15KT 10SM OVC045 23/20 A2989 RMK AO2
PWINO=

Extra information for KM25:More info

Social comments